createdAt,value
2019-03-15T00:00:44.261Z,100480.43
2019-03-15T00:03:17.575Z,100484.75
2019-03-15T00:05:50.994Z,100477.46
2019-03-15T00:08:24.606Z,100486.16
2019-03-15T00:10:58.152Z,100484.48
2019-03-15T00:13:31.480Z,100481.52
2019-03-15T00:16:05.150Z,100493.23
2019-03-15T00:18:38.766Z,100508.03
2019-03-15T00:21:12.218Z,100498.92
2019-03-15T00:23:46.080Z,100499.38
2019-03-15T00:26:19.671Z,100507.25
2019-03-15T00:28:53.046Z,100503.39
2019-03-15T00:31:26.376Z,100508.19
2019-03-15T00:33:59.758Z,100503.88
2019-03-15T00:36:33.086Z,100501.75
2019-03-15T00:39:06.746Z,100510.03
2019-03-15T00:41:40.453Z,100517.50
2019-03-15T00:44:14.096Z,100510.14
2019-03-15T00:46:47.486Z,100512.33
2019-03-15T00:49:21.610Z,100512.37
2019-03-15T00:51:55.490Z,100521.13
2019-03-15T00:54:28.972Z,100513.81
2019-03-15T00:57:02.293Z,100516.86
2019-03-15T00:59:35.705Z,100514.73
2019-03-15T01:02:09.202Z,100520.83
2019-03-15T01:04:42.979Z,100511.31
2019-03-15T01:07:16.417Z,100506.59
2019-03-15T01:09:49.905Z,100502.72
2019-03-15T01:12:23.307Z,100498.85
2019-03-15T01:14:56.770Z,100503.23
2019-03-15T01:17:32.016Z,100500.63
2019-03-15T01:20:07.232Z,100496.80
2019-03-15T01:22:40.593Z,100497.23
2019-03-15T01:25:14.138Z,100495.12
2019-03-15T01:27:49.174Z,100494.30
2019-03-15T01:30:22.634Z,100486.97
2019-03-15T01:32:56.076Z,100486.56
2019-03-15T01:35:29.463Z,100473.59
2019-03-15T01:38:02.966Z,100478.80
2019-03-15T01:40:36.376Z,100469.34
2019-03-15T01:43:10.129Z,100465.07
2019-03-15T01:45:43.894Z,100466.78
2019-03-15T01:48:17.699Z,100465.52
2019-03-15T01:50:50.994Z,100456.03
2019-03-15T01:53:24.570Z,100457.78
2019-03-15T01:55:57.960Z,100458.67
2019-03-15T01:58:31.371Z,100447.83
2019-03-15T02:01:05.961Z,100453.53
2019-03-15T02:03:39.643Z,100443.20
2019-03-15T02:06:13.549Z,100434.11
2019-03-15T02:08:46.999Z,100434.95
2019-03-15T02:11:20.362Z,100432.39
2019-03-15T02:13:53.777Z,100429.86
2019-03-15T02:16:27.686Z,100426.41
2019-03-15T02:19:01.063Z,100431.19
2019-03-15T02:21:35.092Z,100423.87
2019-03-15T02:24:08.899Z,100423.45
2019-03-15T02:26:42.856Z,100426.06
2019-03-15T02:29:16.246Z,100419.59
2019-03-15T02:31:49.719Z,100422.67
2019-03-15T02:34:23.617Z,100420.48
2019-03-15T02:36:56.992Z,100412.30
2019-03-15T02:39:30.637Z,100410.12
2019-03-15T02:42:04.068Z,100405.84
2019-03-15T02:44:39.213Z,100393.33
2019-03-15T02:47:13.061Z,100393.77
2019-03-15T02:49:46.331Z,100392.06
2019-03-15T02:52:19.796Z,100392.53
2019-03-15T02:54:54.523Z,100391.23
2019-03-15T02:57:28.393Z,100390.86
2019-03-15T03:00:01.971Z,100387.81
2019-03-15T03:02:36.372Z,100379.64
2019-03-15T03:05:10.129Z,100367.95
2019-03-15T03:07:43.923Z,100359.78
2019-03-15T03:10:17.263Z,100355.87
2019-03-15T03:12:50.635Z,100343.38
2019-03-15T03:15:25.223Z,100348.13
2019-03-15T03:17:59.786Z,100342.95
2019-03-15T03:20:33.484Z,100336.91
2019-03-15T03:23:07.419Z,100338.65
2019-03-15T03:25:41.315Z,100338.65
2019-03-15T03:28:14.969Z,100340.84
2019-03-15T03:30:48.205Z,100337.80
2019-03-15T03:33:21.693Z,100350.78
2019-03-15T03:35:54.973Z,100342.17
2019-03-15T03:38:28.370Z,100347.84
2019-03-15T03:41:01.765Z,100340.48
2019-03-15T03:43:35.084Z,100346.56
2019-03-15T03:46:08.863Z,100341.81
2019-03-15T03:48:42.562Z,100339.25
2019-03-15T03:51:17.637Z,100335.39
2019-03-15T03:53:51.311Z,100338.40
2019-03-15T03:56:24.747Z,100340.17
2019-03-15T03:58:58.919Z,100343.21
2019-03-15T04:01:32.633Z,100333.71
2019-03-15T04:04:06.330Z,100326.80
2019-03-15T04:06:39.923Z,100325.98
2019-03-15T04:09:13.149Z,100330.77
2019-03-15T04:11:55.479Z,100333.77
2019-03-15T04:14:22.117Z,100324.27
2019-03-15T04:16:57.197Z,100328.17
2019-03-15T04:19:30.853Z,100316.95
2019-03-15T04:22:04.192Z,100318.28
2019-03-15T04:24:37.572Z,100311.80
2019-03-15T04:27:11.383Z,100305.78
2019-03-15T04:29:47.299Z,100306.22
2019-03-15T04:32:20.870Z,100307.08
2019-03-15T04:34:57.815Z,100307.96
2019-03-15T04:37:31.213Z,100298.88
2019-03-15T04:40:08.192Z,100295.02
2019-03-15T04:42:41.825Z,100293.66
2019-03-15T04:45:15.430Z,100287.06
2019-03-15T04:47:48.869Z,100279.62
2019-03-15T04:50:22.492Z,100277.78
2019-03-15T04:52:55.809Z,100274.27
2019-03-15T04:55:29.113Z,100274.98
2019-03-15T04:58:02.472Z,100273.10
2019-03-15T05:00:36.509Z,100272.38
2019-03-15T05:03:09.861Z,100267.84
2019-03-15T05:05:43.217Z,100256.69
2019-03-15T05:08:16.617Z,100248.09
2019-03-15T05:10:50.306Z,100246.90
2019-03-15T05:13:23.519Z,100245.17
2019-03-15T05:15:56.852Z,100243.03
2019-03-15T05:18:30.595Z,100237.98
2019-03-15T05:21:04.013Z,100229.80
2019-03-15T05:23:38.738Z,100225.61
2019-03-15T05:26:12.107Z,100233.23
2019-03-15T05:28:45.532Z,100233.98
2019-03-15T05:31:18.912Z,100229.52
2019-03-15T05:33:52.364Z,100237.23
2019-03-15T05:36:26.035Z,100230.63
2019-03-15T05:38:59.365Z,100228.02
2019-03-15T05:41:33.118Z,100219.30
2019-03-15T05:44:06.525Z,100207.17
2019-03-15T05:46:40.159Z,100206.78
2019-03-15T05:49:14.758Z,100198.07
2019-03-15T05:51:48.206Z,100199.06
2019-03-15T05:54:21.626Z,100197.81
2019-03-15T05:56:55.176Z,100186.54
2019-03-15T05:59:28.928Z,100187.14
2019-03-15T06:02:02.482Z,100185.05
2019-03-15T06:04:35.821Z,100182.20
2019-03-15T06:07:09.420Z,100182.69
2019-03-15T06:09:43.288Z,100176.83
2019-03-15T06:12:16.966Z,100183.03
2019-03-15T06:14:50.369Z,100173.22
2019-03-15T06:17:24.290Z,100166.81
2019-03-15T06:19:57.671Z,100166.00
2019-03-15T06:22:30.984Z,100157.81
2019-03-15T06:25:07.116Z,100145.40
2019-03-15T06:27:40.826Z,100149.84
2019-03-15T06:30:14.842Z,100144.73
2019-03-15T06:32:48.357Z,100139.08
2019-03-15T06:35:21.727Z,100135.36
2019-03-15T06:37:55.209Z,100134.51
2019-03-15T06:40:28.604Z,100122.00
2019-03-15T06:43:02.649Z,100122.35
2019-03-15T06:45:36.257Z,100114.16
2019-03-15T06:48:11.073Z,100117.44
2019-03-15T06:50:44.856Z,100102.81
2019-03-15T06:53:18.383Z,100102.81
2019-03-15T06:55:51.994Z,100097.92
2019-03-15T06:58:25.529Z,100090.93
2019-03-15T07:00:59.196Z,100097.03
2019-03-15T07:03:35.152Z,100107.08
2019-03-15T07:06:08.922Z,100093.71
2019-03-15T07:08:42.394Z,100094.26
2019-03-15T07:11:16.979Z,100092.41
2019-03-15T07:13:50.837Z,100088.47
2019-03-15T07:16:24.452Z,100079.82
2019-03-15T07:18:59.407Z,100069.91
2019-03-15T07:21:36.818Z,100072.55
2019-03-15T07:24:24.132Z,100060.94
2019-03-15T07:26:45.752Z,100068.30
2019-03-15T07:29:19.276Z,100062.25
2019-03-15T07:31:54.674Z,100056.29
2019-03-15T07:34:28.321Z,100050.14
2019-03-15T07:37:03.441Z,100059.70
2019-03-15T07:39:38.841Z,100050.59
2019-03-15T07:42:12.950Z,100049.97
2019-03-15T07:44:49.067Z,100045.14
2019-03-15T07:47:22.885Z,100040.28
2019-03-15T07:49:56.195Z,100037.19
2019-03-15T07:52:29.556Z,100042.48
2019-03-15T07:55:05.072Z,100046.69
2019-03-15T07:57:38.859Z,100052.80
2019-03-15T08:00:16.765Z,100043.28
2019-03-15T08:02:50.471Z,100042.08
2019-03-15T08:05:24.651Z,100039.89
2019-03-15T08:07:58.795Z,100043.03
2019-03-15T08:10:33.308Z,100031.41
2019-03-15T08:13:06.828Z,100022.77
2019-03-15T08:15:40.647Z,100016.63
2019-03-15T08:18:14.068Z,100020.52
2019-03-15T08:20:48.043Z,100029.17
2019-03-15T08:23:21.391Z,100034.42
2019-03-15T08:25:55.533Z,100027.92
2019-03-15T08:28:28.951Z,100037.02
2019-03-15T08:31:02.324Z,100035.77
2019-03-15T08:33:35.893Z,100028.36
2019-03-15T08:36:09.610Z,100032.77
2019-03-15T08:38:47.820Z,100041.06
2019-03-15T08:41:18.205Z,100045.37
2019-03-15T08:43:51.614Z,100047.56
2019-03-15T08:46:25.256Z,100051.06
2019-03-15T08:48:58.742Z,100057.56
2019-03-15T08:51:32.206Z,100057.52
2019-03-15T08:54:06.073Z,100048.33
2019-03-15T08:56:41.048Z,100049.17
2019-03-15T08:59:15.444Z,100052.04
2019-03-15T09:01:48.972Z,100053.73
2019-03-15T09:04:22.366Z,100061.84
2019-03-15T09:06:55.938Z,100068.74
2019-03-15T09:09:29.944Z,100066.50
2019-03-15T09:12:03.844Z,100075.60
2019-03-15T09:14:37.330Z,100076.45
2019-03-15T09:17:10.682Z,100090.27
2019-03-15T09:19:44.174Z,100094.58
2019-03-15T09:22:17.882Z,100089.81
2019-03-15T09:24:51.223Z,100097.97
2019-03-15T09:27:24.628Z,100037.80
2019-03-15T09:29:58.083Z,100102.73
2019-03-15T09:32:31.573Z,100105.73
2019-03-15T09:35:05.342Z,100097.92
2019-03-15T09:37:38.937Z,100097.52
2019-03-15T09:40:14.305Z,100087.12
2019-03-15T09:42:47.702Z,100095.77
2019-03-15T09:45:22.646Z,100104.43
2019-03-15T09:47:56.130Z,100101.78
2019-03-15T09:50:39.876Z,100101.37
2019-03-15T09:53:06.099Z,100101.73
2019-03-15T09:55:39.813Z,100103.48
2019-03-15T09:58:14.209Z,100116.48
2019-03-15T10:00:49.140Z,100119.89
2019-03-15T10:03:24.093Z,100117.30
2019-03-15T10:05:57.459Z,100122.50
2019-03-15T10:08:30.785Z,100125.09
2019-03-15T10:11:05.204Z,100120.34
2019-03-15T10:13:38.664Z,100114.33
2019-03-15T10:16:11.991Z,100129.05
2019-03-15T10:18:45.356Z,100126.04
2019-03-15T10:21:18.699Z,100121.25
2019-03-15T10:23:52.788Z,100128.34
2019-03-15T10:26:26.179Z,100144.30
2019-03-15T10:28:59.503Z,100142.19
2019-03-15T10:31:32.995Z,100138.33
2019-03-15T10:34:06.488Z,100139.24
2019-03-15T10:36:39.855Z,100123.67
2019-03-15T10:39:13.194Z,100123.31
2019-03-15T10:41:46.564Z,100125.06
2019-03-15T10:44:19.983Z,100118.56
2019-03-15T10:46:53.444Z,100123.77
2019-03-15T10:49:26.775Z,100132.46
2019-03-15T10:52:00.196Z,100150.68
2019-03-15T10:54:33.590Z,100137.22
2019-03-15T10:57:07.026Z,100040.95
2019-03-15T10:59:41.485Z,100145.92
2019-03-15T11:02:14.918Z,100151.92
2019-03-15T11:04:48.233Z,100165.78
2019-03-15T11:07:21.948Z,100168.39
2019-03-15T11:09:55.584Z,100145.42
2019-03-15T11:12:29.528Z,100152.78
2019-03-15T11:15:05.928Z,100153.67
2019-03-15T11:17:39.651Z,100162.33
2019-03-15T11:20:13.096Z,100146.33
2019-03-15T11:22:46.929Z,100137.67
2019-03-15T11:25:21.531Z,100147.22
2019-03-15T11:27:55.334Z,100061.33
2019-03-15T11:30:29.142Z,100148.16
2019-03-15T11:33:02.708Z,100151.61
2019-03-15T11:35:37.300Z,100147.62
2019-03-15T11:38:10.480Z,100130.72
2019-03-15T11:40:45.448Z,100124.21
2019-03-15T11:43:19.134Z,100137.23
2019-03-15T11:45:52.692Z,100151.11
2019-03-15T11:48:26.044Z,100153.72
2019-03-15T11:50:59.379Z,100163.23
2019-03-15T11:53:32.951Z,100163.67
2019-03-15T11:56:06.444Z,100157.98
2019-03-15T11:58:39.968Z,100146.23
2019-03-15T12:01:13.556Z,100160.91
2019-03-15T12:03:53.079Z,100146.15
2019-03-15T12:06:22.082Z,100127.84
2019-03-15T12:08:55.503Z,100135.60
2019-03-15T12:11:28.919Z,100157.62
2019-03-15T12:14:02.353Z,100133.71
2019-03-15T12:16:38.531Z,100140.62
2019-03-15T12:19:11.854Z,100146.66
2019-03-15T12:21:45.191Z,100145.32
2019-03-15T12:24:18.543Z,100138.32
2019-03-15T12:26:51.861Z,100143.08
2019-03-15T12:29:25.398Z,100159.95
2019-03-15T12:31:58.784Z,100157.79
2019-03-15T12:34:32.313Z,100160.39
2019-03-15T12:37:05.599Z,100162.10
2019-03-15T12:39:40.003Z,100155.64
2019-03-15T12:42:13.305Z,100143.97
2019-03-15T12:44:46.784Z,100136.22
2019-03-15T12:47:20.113Z,100151.87
2019-03-15T12:49:53.454Z,100140.16
2019-03-15T12:52:26.747Z,100147.98
2019-03-15T12:55:00.172Z,100145.42
2019-03-15T12:57:33.748Z,100147.17
2019-03-15T13:00:10.418Z,100140.70
2019-03-15T13:02:43.733Z,100149.00
2019-03-15T13:05:17.110Z,100159.86
2019-03-15T13:07:50.441Z,100140.80
2019-03-15T13:10:23.975Z,100137.80
2019-03-15T13:12:57.275Z,100135.28
2019-03-15T13:15:32.100Z,100130.12
2019-03-15T13:18:06.734Z,100124.92
2019-03-15T13:20:40.322Z,100139.24
2019-03-15T13:23:13.675Z,100157.49
2019-03-15T13:25:50.275Z,100154.97
2019-03-15T13:28:23.588Z,100148.08
2019-03-15T13:30:57.099Z,100155.92
2019-03-15T13:33:30.411Z,100161.52
2019-03-15T13:36:03.867Z,100155.87
2019-03-15T13:38:37.241Z,100147.27
2019-03-15T13:41:12.188Z,100155.11
2019-03-15T13:43:45.528Z,100160.80
2019-03-15T13:46:18.934Z,100165.59
2019-03-15T13:48:52.247Z,100157.80
2019-03-15T13:51:25.748Z,100170.75
2019-03-15T13:53:59.169Z,100184.13
2019-03-15T13:56:32.759Z,100192.73
2019-03-15T13:59:06.133Z,100185.78
2019-03-15T14:01:39.465Z,100177.89
2019-03-15T14:04:12.778Z,100207.27
2019-03-15T14:06:46.343Z,100204.09
2019-03-15T14:09:19.731Z,100216.11
2019-03-15T14:11:53.067Z,100233.83
2019-03-15T14:14:26.634Z,100232.44
2019-03-15T14:16:59.995Z,100220.64
2019-03-15T14:19:33.326Z,100238.84
2019-03-15T14:22:06.665Z,100223.55
2019-03-15T14:24:40.160Z,100242.58
2019-03-15T14:27:13.512Z,100234.33
2019-03-15T14:29:46.822Z,100234.77
2019-03-15T14:32:20.163Z,100250.38
2019-03-15T14:34:53.468Z,100250.78
2019-03-15T14:37:26.868Z,100242.08
2019-03-15T14:40:01.044Z,100247.70
2019-03-15T14:42:34.446Z,100245.58
2019-03-15T14:45:09.583Z,100257.70
2019-03-15T14:47:42.902Z,100262.91
2019-03-15T14:50:17.797Z,100260.70
2019-03-15T14:52:52.750Z,100265.10
2019-03-15T14:55:26.108Z,100269.45
2019-03-15T14:58:00.366Z,100260.35
2019-03-15T15:00:34.083Z,100259.91
2019-03-15T15:03:07.652Z,100269.05
2019-03-15T15:05:41.067Z,100282.11
2019-03-15T15:08:14.524Z,100303.41
2019-03-15T15:10:48.136Z,100316.47
2019-03-15T15:13:23.086Z,100317.33
2019-03-15T15:15:56.678Z,100311.72
2019-03-15T15:18:30.351Z,100320.02
2019-03-15T15:21:03.770Z,100334.33
2019-03-15T15:23:36.898Z,100335.25
2019-03-15T15:26:10.271Z,100339.20
2019-03-15T15:28:43.612Z,100335.75
2019-03-15T15:31:17.252Z,100340.09
2019-03-15T15:33:50.572Z,100334.08
2019-03-15T15:36:25.131Z,100344.52
2019-03-15T15:39:00.442Z,100344.98
2019-03-15T15:41:34.478Z,100335.91
2019-03-15T15:44:07.793Z,100333.34
2019-03-15T15:46:41.437Z,100336.84
2019-03-15T15:49:17.192Z,100339.92
2019-03-15T15:51:50.592Z,100344.23
2019-03-15T15:54:24.024Z,100340.42
2019-03-15T15:56:57.571Z,100331.31
2019-03-15T15:59:30.959Z,100343.47
2019-03-15T16:02:04.147Z,100333.95
2019-03-15T16:04:38.528Z,100340.05
2019-03-15T16:07:11.870Z,100340.53
2019-03-15T16:09:45.167Z,100342.28
2019-03-15T16:12:18.584Z,100350.09
2019-03-15T16:14:53.493Z,100360.48
2019-03-15T16:17:27.105Z,100365.69
2019-03-15T16:20:00.469Z,100357.00
2019-03-15T16:22:34.183Z,100347.48
2019-03-15T16:25:09.006Z,100373.48
2019-03-15T16:27:43.237Z,100368.29
2019-03-15T16:30:20.048Z,100357.00
2019-03-15T16:32:53.429Z,100357.89
2019-03-15T16:35:26.819Z,100367.88
2019-03-15T16:38:00.250Z,100378.73
2019-03-15T16:40:33.937Z,100382.23
2019-03-15T16:43:07.707Z,100389.55
2019-03-15T16:45:41.522Z,100396.91
2019-03-15T16:48:15.029Z,100397.31
2019-03-15T16:50:52.100Z,100412.55
2019-03-15T16:53:26.521Z,100402.63
2019-03-15T16:55:59.906Z,100413.95
2019-03-15T16:58:44.740Z,100318.28
2019-03-15T17:01:08.978Z,100407.08
2019-03-15T17:03:43.724Z,100409.75
2019-03-15T17:06:17.498Z,100409.30
2019-03-15T17:08:51.125Z,100421.45
2019-03-15T17:11:26.483Z,100407.56
2019-03-15T17:14:01.698Z,100419.59
2019-03-15T17:16:35.134Z,100421.75
2019-03-15T17:19:12.821Z,100429.97
2019-03-15T17:21:47.662Z,100440.27
2019-03-15T17:24:22.166Z,100441.90
2019-03-15T17:26:55.652Z,100448.33
2019-03-15T17:29:32.856Z,100451.23
2019-03-15T17:32:06.226Z,100458.92
2019-03-15T17:34:39.545Z,100468.36
2019-03-15T17:37:12.926Z,100477.80
2019-03-15T17:39:48.018Z,100479.86
2019-03-15T17:42:21.454Z,100486.33
2019-03-15T17:44:55.118Z,100484.61
2019-03-15T17:47:30.046Z,100486.28
2019-03-15T17:50:09.446Z,100477.99
2019-03-15T17:52:42.792Z,100477.51
2019-03-15T17:55:16.470Z,100488.44
2019-03-15T17:57:49.932Z,100490.56
2019-03-15T18:00:26.557Z,100497.92
2019-03-15T18:03:00.126Z,100507.87
2019-03-15T18:05:33.605Z,100513.12
2019-03-15T18:08:07.320Z,100513.94
2019-03-15T18:10:40.876Z,100521.34
2019-03-15T18:13:14.285Z,100518.29
2019-03-15T18:15:50.018Z,100531.30
2019-03-15T18:18:23.954Z,100534.36
2019-03-15T18:20:57.355Z,100532.31
2019-03-15T18:23:31.956Z,100551.53
2019-03-15T18:26:05.495Z,100548.92
2019-03-15T18:28:39.075Z,100548.96
2019-03-15T18:31:12.800Z,100552.52
2019-03-15T18:33:46.235Z,100554.30
2019-03-15T18:36:19.904Z,100555.98
2019-03-15T18:38:53.306Z,100566.80
2019-03-15T18:41:27.123Z,100568.06
2019-03-15T18:44:00.637Z,100571.59
2019-03-15T18:46:34.521Z,100577.20
2019-03-15T18:49:07.905Z,100588.03
2019-03-15T18:51:42.320Z,100585.63
2019-03-15T18:54:17.787Z,100591.62
2019-03-15T18:56:51.048Z,100585.08
2019-03-15T18:59:24.726Z,100582.99
2019-03-15T19:01:58.953Z,100582.48
2019-03-15T19:04:32.773Z,100579.13
2019-03-15T19:07:06.265Z,100589.91
2019-03-15T19:09:39.577Z,100583.91
2019-03-15T19:12:13.143Z,100600.83
2019-03-15T19:14:47.081Z,100605.52
2019-03-15T19:17:21.293Z,100611.27
2019-03-15T19:19:56.448Z,100619.58
2019-03-15T19:22:30.294Z,100630.33
2019-03-15T19:25:04.644Z,100639.53
2019-03-15T19:27:38.640Z,100653.42
2019-03-15T19:30:19.192Z,100655.61
2019-03-15T19:32:52.687Z,100659.52
2019-03-15T19:35:25.998Z,100648.25
2019-03-15T19:37:59.698Z,100652.09
2019-03-15T19:40:35.547Z,100650.80
2019-03-15T19:43:09.880Z,100648.63
2019-03-15T19:45:43.507Z,100645.18
2019-03-15T19:48:17.511Z,100646.09
2019-03-15T19:50:50.913Z,100650.91
2019-03-15T19:53:24.562Z,100650.91
2019-03-15T19:56:01.947Z,100655.70
2019-03-15T19:58:36.012Z,100662.64
2019-03-15T20:01:09.516Z,100664.03
2019-03-15T20:03:44.492Z,100667.96
2019-03-15T20:06:18.143Z,100664.50
2019-03-15T20:08:51.483Z,100666.25
2019-03-15T20:11:25.032Z,100665.86
2019-03-15T20:13:58.867Z,100671.95
2019-03-15T20:16:32.442Z,100691.01
2019-03-15T20:19:06.304Z,100682.38
2019-03-15T20:21:39.674Z,100681.13
2019-03-15T20:24:13.104Z,100671.17
2019-03-15T20:26:47.054Z,100672.91
2019-03-15T20:29:20.877Z,100671.67
2019-03-15T20:31:54.017Z,100678.17
2019-03-15T20:34:27.442Z,100687.35
2019-03-15T20:37:01.057Z,100686.91
2019-03-15T20:39:34.362Z,100692.11
2019-03-15T20:42:07.791Z,100697.33
2019-03-15T20:44:41.881Z,100695.14
2019-03-15T20:47:15.343Z,100690.42
2019-03-15T20:49:48.698Z,100686.52
2019-03-15T20:52:22.119Z,100683.50
2019-03-15T20:54:55.492Z,100691.25
2019-03-15T20:57:28.861Z,100691.30
2019-03-15T21:00:03.523Z,100694.31
2019-03-15T21:02:38.603Z,100689.14
2019-03-15T21:05:11.944Z,100705.17
2019-03-15T21:07:46.409Z,100706.92
2019-03-15T21:10:19.760Z,100716.88
2019-03-15T21:12:53.063Z,100720.35
2019-03-15T21:15:26.404Z,100709.95
2019-03-15T21:18:01.441Z,100717.34
2019-03-15T21:20:34.906Z,100723.42
2019-03-15T21:23:08.298Z,100715.20
2019-03-15T21:25:41.840Z,100713.48
2019-03-15T21:28:15.144Z,100719.98
2019-03-15T21:30:48.973Z,100721.73
2019-03-15T21:33:23.637Z,100725.20
2019-03-15T21:35:57.061Z,100653.00
2019-03-15T21:38:30.394Z,100739.06
2019-03-15T21:41:03.915Z,100734.35
2019-03-15T21:43:37.273Z,100735.19
2019-03-15T21:46:10.638Z,100742.95
2019-03-15T21:48:45.185Z,100751.66
2019-03-15T21:51:18.548Z,100736.09
2019-03-15T21:53:52.050Z,100753.84
2019-03-15T21:56:25.474Z,100755.17
2019-03-15T21:58:59.371Z,100749.09
2019-03-15T22:01:32.747Z,100757.34
2019-03-15T22:04:06.043Z,100764.70
2019-03-15T22:06:39.525Z,100766.05
2019-03-15T22:09:13.172Z,100764.77
2019-03-15T22:11:46.690Z,100766.95
2019-03-15T22:14:20.005Z,100771.27
2019-03-15T22:16:53.461Z,100768.27
2019-03-15T22:19:27.877Z,100782.13
2019-03-15T22:22:01.222Z,100685.30
2019-03-15T22:24:34.355Z,100783.86
2019-03-15T22:27:07.776Z,100793.37
2019-03-15T22:29:52.972Z,100798.59
2019-03-15T22:32:18.079Z,100792.95
2019-03-15T22:34:51.487Z,100787.77
2019-03-15T22:37:24.652Z,100796.47
2019-03-15T22:39:57.973Z,100808.12
2019-03-15T22:42:31.535Z,100805.55
2019-03-15T22:45:10.024Z,100792.15
2019-03-15T22:47:43.348Z,100794.73
2019-03-15T22:50:16.711Z,100804.71
2019-03-15T22:52:50.220Z,100800.80
2019-03-15T22:55:23.403Z,100796.91
2019-03-15T22:58:00.167Z,100793.03
2019-03-15T23:00:31.755Z,100797.37
2019-03-15T23:03:06.870Z,100799.16
2019-03-15T23:05:40.264Z,100792.22
2019-03-15T23:08:13.703Z,100800.05
2019-03-15T23:10:47.394Z,100811.30
2019-03-15T23:13:20.789Z,100813.05
2019-03-15T23:15:53.930Z,100808.73
2019-03-15T23:18:27.512Z,100799.23
2019-03-15T23:21:00.871Z,100813.09
2019-03-15T23:23:35.222Z,100797.09
2019-03-15T23:26:08.583Z,100794.50
2019-03-15T23:28:42.303Z,100800.58
2019-03-15T23:31:15.964Z,100801.02
2019-03-15T23:33:49.588Z,100813.56
2019-03-15T23:36:23.119Z,100817.46
2019-03-15T23:38:56.426Z,100820.06
2019-03-15T23:41:29.858Z,100820.48
2019-03-15T23:44:03.313Z,100823.09
2019-03-15T23:46:36.656Z,100816.58
2019-03-15T23:49:10.053Z,100727.94
2019-03-15T23:51:43.424Z,100820.94
2019-03-15T23:54:17.107Z,100829.19
2019-03-15T23:56:50.450Z,100824.00
2019-03-15T23:59:24.155Z,100829.63
